Time;durP1;ratioP1;P1;durP2;ratioP2;P2;SDS_P1;SDS_P2;PMS_P1;PMS_P2;Temp;Humidity;BMP_temperature;BMP_pressure;BME280_temperature;BME280_humidity;BME280_pressure;Samples;Min_cycle;Max_cycle;Signal;HPM_P1;HPM_P2
2021/10/30 00:02:20;;;;;;;;;;;;;;;;;;;;;
2021/10/30 00:04:40;;;;;;;6.40;4.70;;;14.00;99.90;;;;;;5003000;28;20566;-87
2021/10/30 00:07:44;;;;;;;6.10;4.77;;;14.20;99.90;;;;;;4982432;28;20198;-88
2021/10/30 00:10:19;;;;;;;5.93;4.53;;;14.20;99.90;;;;;;5008193;28;20183;-87
2021/10/30 00:30:18;;;;;;;7.20;5.23;;;14.20;99.90;;;;;;5021321;28;20167;-87
2021/10/30 00:36:50;;;;;;;6.67;5.00;;;14.20;99.90;;;;;;5126559;28;20210;-86
2021/10/30 00:40:01;;;;;;;9.20;5.20;;;14.20;99.90;;;;;;5134250;27;20192;-87
2021/10/30 00:50:17;;;;;;;7.83;6.03;;;14.40;99.90;;;;;;5090686;28;20212;-87
2021/10/30 00:56:12;;;;;;;10.07;7.23;;;14.40;99.90;;;;;;5124603;28;20297;-87
2021/10/30 00:59:08;;;;;;;;;;;;;;;;;;;;;
2021/10/30 01:15:58;;;;;;;7.80;6.43;;;14.30;99.90;;;;;;5046219;28;20186;-86
2021/10/30 01:21:56;;;;;;;8.77;5.50;;;14.20;99.90;;;;;;5047762;28;20296;-87
2021/10/30 01:28:03;;;;;;;8.73;6.50;;;14.20;99.90;;;;;;5027269;28;20206;-87
2021/10/30 01:31:22;;;;;;;9.40;6.43;;;14.30;99.90;;;;;;5023250;28;20260;-87
2021/10/30 01:51:11;;;;;;;11.13;6.70;;;14.40;99.90;;;;;;4971634;28;20309;-88
2021/10/30 02:03:57;;;;;;;8.00;5.90;;;14.40;99.90;;;;;;4996422;28;20215;-87
2021/10/30 02:07:06;;;;;;;6.37;5.70;;;14.40;99.90;;;;;;4989925;28;20208;-87
2021/10/30 02:23:59;;;;;;;8.93;5.30;;;14.50;99.90;;;;;;5078347;28;20208;-85
2021/10/30 02:26:54;;;;;;;6.00;4.93;;;14.40;99.90;;;;;;5114097;28;20185;-87
2021/10/30 02:32:48;;;;;;;7.70;5.30;;;14.30;99.90;;;;;;5122322;28;20578;-87
2021/10/30 02:35:55;;;;;;;6.90;5.13;;;14.40;99.90;;;;;;5119880;28;20181;-88
2021/10/30 02:41:43;;;;;;;7.17;5.03;;;14.50;99.90;;;;;;5124141;28;20177;-86
2021/10/30 02:58:44;;;;;;;;;;;;;;;;;;;;;
2021/10/30 03:05:23;;;;;;;9.17;5.37;;;14.50;99.90;;;;;;5045555;28;20254;-86
2021/10/30 03:29:02;;;;;;;7.67;5.00;;;14.60;99.90;;;;;;5090362;27;20247;-87
2021/10/30 03:35:37;;;;;;;7.17;4.63;;;14.60;99.90;;;;;;5138896;27;20214;-87
2021/10/30 03:38:04;;;;;;;5.07;4.47;;;14.70;99.90;;;;;;5075166;28;20212;-87
2021/10/30 03:47:42;;;;;;;5.67;4.50;;;14.70;99.90;;;;;;5130487;27;20200;-87
2021/10/30 05:33:03;;;;;;;5.80;4.00;;;14.10;99.90;;;;;;5075317;28;20216;-89
2021/10/30 05:56:30;;;;;;;5.97;4.10;;;14.20;99.90;;;;;;5020751;28;20178;-89
2021/10/30 06:06:07;;;;;;;6.40;4.63;;;14.20;99.90;;;;;;4963387;28;20174;-89
2021/10/30 06:19:15;;;;;;;6.07;4.37;;;14.20;99.90;;;;;;4959567;29;20267;-89
2021/10/30 06:56:11;;;;;;;5.93;3.43;;;14.10;99.90;;;;;;4950872;28;20273;-88
2021/10/30 07:06:52;;;;;;;4.13;3.27;;;14.10;99.90;;;;;;5020706;28;20152;-87
2021/10/30 07:13:04;;;;;;;5.03;3.47;;;14.00;99.90;;;;;;5021003;28;20202;-87
2021/10/30 07:36:28;;;;;;;;;;;;;;;;;;;;;
2021/10/30 07:43:09;;;;;;;4.50;3.30;;;14.10;99.90;;;;;;4976568;28;20304;-90
2021/10/30 07:52:56;;;;;;;4.67;3.07;;;14.20;99.90;;;;;;5099058;28;20172;-87
2021/10/30 07:56:22;;;;;;;;;;;;;;;;;;;;;
2021/10/30 07:59:30;;;;;;;5.23;3.37;;;14.00;99.90;;;;;;5031796;28;20194;-85
2021/10/30 08:09:56;;;;;;;;;;;;;;;;;;;;;
2021/10/30 08:16:45;;;;;;;5.60;3.60;;;14.20;99.90;;;;;;4901650;29;20263;-86
2021/10/30 08:23:11;;;;;;;4.70;3.23;;;14.10;99.90;;;;;;4900150;29;20226;-86
2021/10/30 08:26:06;;;;;;;4.93;3.47;;;14.10;99.90;;;;;;4887343;29;20192;-85
2021/10/30 08:29:14;;;;;;;6.43;3.70;;;14.00;99.90;;;;;;4921280;29;20260;-84
2021/10/30 08:39:20;;;;;;;;;;;;;;;;;;;;;
2021/10/30 08:45:58;;;;;;;6.93;3.43;;;14.20;99.90;;;;;;4961499;28;20194;-86
2021/10/30 08:49:38;;;;;;;5.77;3.40;;;14.10;99.90;;;;;;4904358;29;20166;-87
2021/10/30 09:09:57;;;;;;;5.37;3.10;;;14.20;99.90;;;;;;4939630;29;20172;-87
2021/10/30 09:13:12;;;;;;;4.80;3.17;;;14.20;99.90;;;;;;4961147;28;20230;-87
2021/10/30 09:23:22;;;;;;;;;;;;;;;;;;;;;
2021/10/30 09:26:41;;;;;;;4.63;3.20;;;14.30;99.90;;;;;;4913701;29;20186;-86
2021/10/30 09:36:24;;;;;;;5.97;3.40;;;14.40;99.90;;;;;;5057385;28;20187;-86
2021/10/30 09:39:12;;;;;;;5.37;3.90;;;14.50;99.90;;;;;;5054381;28;20268;-91
2021/10/30 09:41:44;;;;;;;4.40;3.10;;;14.50;99.90;;;;;;5039301;28;20169;-84
2021/10/30 09:44:26;;;;;;;4.80;3.43;;;14.60;99.90;;;;;;5054195;28;20214;-84
2021/10/30 09:47:21;;;;;;;5.73;3.40;;;14.60;99.90;;;;;;5053792;28;20176;-86
2021/10/30 09:49:50;;;;;;;6.23;3.10;;;14.60;99.90;;;;;;5050813;28;20193;-87
2021/10/30 09:52:20;;;;;;;4.97;3.40;;;14.70;99.90;;;;;;5049158;28;20165;-87
2021/10/30 09:54:47;;;;;;;5.83;3.37;;;14.80;99.90;;;;;;5054863;28;20160;-87
2021/10/30 09:57:31;;;;;;;5.00;3.23;;;14.70;99.90;;;;;;5054217;28;20207;-85
2021/10/30 10:00:01;;;;;;;5.73;3.30;;;14.70;99.90;;;;;;5055147;28;20262;-92
2021/10/30 10:02:29;;;;;;;4.50;2.77;;;14.70;99.90;;;;;;5050774;28;20207;-89
2021/10/30 10:05:03;;;;;;;4.27;2.60;;;14.70;99.90;;;;;;5046719;28;20173;-91
2021/10/30 10:07:35;;;;;;;4.43;3.40;;;14.70;99.90;;;;;;5056358;28;20191;-86
2021/10/30 10:10:10;;;;;;;3.87;2.60;;;14.70;99.90;;;;;;5055405;28;20172;-94
2021/10/30 10:12:36;;;;;;;3.67;2.43;;;14.70;99.90;;;;;;5046115;28;20205;-93
2021/10/30 10:15:05;;;;;;;4.17;2.70;;;14.80;99.90;;;;;;5042075;28;20587;-91
2021/10/30 10:17:32;;;;;;;5.00;2.63;;;14.70;99.90;;;;;;5041144;28;20548;-92
2021/10/30 10:19:59;;;;;;;4.50;2.50;;;14.80;99.90;;;;;;5038859;28;20200;-88
2021/10/30 10:22:26;;;;;;;5.23;3.00;;;14.90;99.90;;;;;;5038688;28;20194;-89
2021/10/30 10:25:41;;;;;;;5.63;2.80;;;14.90;99.90;;;;;;5040660;28;20179;-90
2021/10/30 10:28:43;;;;;;;5.23;2.77;;;14.90;99.90;;;;;;5045641;28;20278;-93
2021/10/30 10:31:26;;;;;;;5.67;3.13;;;14.80;99.90;;;;;;5045461;28;20232;-89
2021/10/30 10:34:28;;;;;;;4.50;2.90;;;14.90;99.90;;;;;;5056851;28;20170;-87
2021/10/30 10:37:36;;;;;;;4.27;2.90;;;14.90;99.90;;;;;;5042042;28;20174;-88
2021/10/30 10:40:34;;;;;;;4.27;2.53;;;15.00;99.90;;;;;;5055695;28;20190;-90
2021/10/30 10:43:00;;;;;;;3.70;2.00;;;15.00;99.90;;;;;;5029166;28;20344;-90
2021/10/30 10:45:49;;;;;;;3.63;2.50;;;15.00;99.90;;;;;;5059029;28;20193;-88
2021/10/30 10:48:22;;;;;;;5.40;2.83;;;15.10;99.90;;;;;;5057556;28;20193;-86
2021/10/30 10:50:53;;;;;;;5.10;2.77;;;15.10;99.90;;;;;;5033434;28;20530;-90
2021/10/30 10:53:20;;;;;;;3.97;2.60;;;15.10;99.90;;;;;;5055682;28;20196;-87
2021/10/30 10:55:47;;;;;;;5.63;2.80;;;15.10;99.90;;;;;;5057732;28;20168;-85
2021/10/30 10:58:16;;;;;;;3.80;2.70;;;15.30;99.90;;;;;;5052757;28;20196;-91
2021/10/30 11:01:11;;;;;;;5.57;2.80;;;15.20;99.90;;;;;;5046873;28;20269;-83
2021/10/30 11:03:44;;;;;;;4.43;3.20;;;15.20;99.90;;;;;;5049116;28;20300;-86
2021/10/30 11:06:11;;;;;;;4.40;2.50;;;15.10;99.90;;;;;;5037526;28;20272;-91
2021/10/30 11:08:37;;;;;;;5.37;2.70;;;15.30;99.90;;;;;;5057368;28;20177;-87
2021/10/30 11:11:20;;;;;;;2.83;2.00;;;15.30;99.90;;;;;;5057765;28;20196;-88
2021/10/30 11:14:06;;;;;;;4.23;2.60;;;15.30;99.90;;;;;;5058934;28;20258;-87
2021/10/30 11:16:46;;;;;;;2.53;2.10;;;15.40;99.90;;;;;;5057689;28;20703;-91
2021/10/30 11:19:29;;;;;;;2.73;1.90;;;15.40;99.90;;;;;;5047727;28;20233;-92
2021/10/30 11:22:22;;;;;;;3.57;2.20;;;15.40;99.90;;;;;;5028353;28;20294;-91
2021/10/30 11:25:00;;;;;;;4.27;3.27;;;15.40;99.90;;;;;;5058053;28;20181;-90
2021/10/30 11:28:01;;;;;;;3.43;2.27;;;15.50;99.90;;;;;;5059046;28;20158;-90
2021/10/30 11:30:44;;;;;;;3.67;2.53;;;15.50;99.90;;;;;;5041515;28;20193;-89
2021/10/30 11:33:22;;;;;;;4.37;2.30;;;15.50;99.90;;;;;;5058954;28;20170;-89
2021/10/30 11:36:15;;;;;;;5.53;2.30;;;15.50;99.90;;;;;;5058683;28;20189;-90
2021/10/30 11:38:57;;;;;;;3.60;2.20;;;15.60;99.90;;;;;;5048653;28;20247;-93
2021/10/30 11:41:28;;;;;;;4.27;1.67;;;15.60;99.90;;;;;;5047348;28;20171;-92
2021/10/30 11:44:04;;;;;;;3.57;2.50;;;15.50;99.90;;;;;;5030696;28;20225;-91
2021/10/30 11:46:30;;;;;;;3.83;2.10;;;15.40;99.90;;;;;;5048507;28;20180;-92
2021/10/30 11:49:02;;;;;;;2.77;1.90;;;15.40;99.90;;;;;;5045596;28;20224;-89
2021/10/30 11:51:31;;;;;;;3.13;2.03;;;15.60;99.90;;;;;;5046441;28;20165;-92
2021/10/30 11:53:59;;;;;;;3.50;1.83;;;15.70;99.90;;;;;;5046753;28;20249;-93
2021/10/30 11:56:28;;;;;;;3.13;2.33;;;15.60;99.90;;;;;;5055197;28;20178;-91
2021/10/30 11:59:02;;;;;;;2.47;1.87;;;15.40;99.90;;;;;;5055994;28;20182;-84
2021/10/30 12:01:32;;;;;;;3.47;2.03;;;15.50;99.90;;;;;;5057499;28;20178;-87
2021/10/30 12:04:28;;;;;;;4.70;2.00;;;15.50;99.90;;;;;;5058489;28;20239;-88
2021/10/30 12:07:05;;;;;;;2.33;1.60;;;15.40;99.90;;;;;;5055287;28;20215;-86
2021/10/30 12:09:47;;;;;;;3.07;1.80;;;15.50;99.90;;;;;;5056483;28;20167;-83
2021/10/30 12:12:31;;;;;;;2.53;1.70;;;15.50;99.90;;;;;;5043260;28;20237;-92
2021/10/30 12:15:24;;;;;;;2.90;1.70;;;15.40;99.90;;;;;;5046331;28;20212;-92
2021/10/30 12:17:53;;;;;;;3.47;1.87;;;15.40;99.90;;;;;;5046667;28;20281;-89
2021/10/30 12:20:21;;;;;;;3.87;1.80;;;15.50;99.90;;;;;;5049201;28;20216;-93
2021/10/30 12:22:57;;;;;;;2.87;1.70;;;15.40;99.90;;;;;;5033153;28;20221;-91
2021/10/30 12:25:28;;;;;;;1.73;1.43;;;15.40;99.90;;;;;;5046818;28;20205;-93
2021/10/30 12:28:29;;;;;;;2.57;1.63;;;15.40;99.90;;;;;;5029209;28;20715;-88
2021/10/30 12:31:00;;;;;;;3.87;2.03;;;15.40;99.90;;;;;;5044389;28;20201;-91
2021/10/30 12:33:38;;;;;;;3.40;1.83;;;15.50;99.90;;;;;;5042071;28;20208;-89
2021/10/30 12:36:05;;;;;;;2.00;1.40;;;15.60;99.90;;;;;;5041264;28;20181;-93
2021/10/30 12:38:31;;;;;;;2.40;1.57;;;15.60;99.90;;;;;;5054486;28;20203;-89
2021/10/30 12:40:58;;;;;;;2.63;1.47;;;15.50;99.90;;;;;;5057211;28;20178;-90
2021/10/30 12:43:30;;;;;;;2.93;1.70;;;15.50;99.90;;;;;;5057948;28;20201;-86
2021/10/30 12:46:39;;;;;;;2.80;1.80;;;15.50;99.90;;;;;;5033047;28;20224;-90
2021/10/30 12:49:21;;;;;;;2.20;1.43;;;15.50;99.90;;;;;;5053314;28;20181;-91
2021/10/30 12:51:57;;;;;;;2.67;1.60;;;15.40;99.90;;;;;;5048187;28;20173;-92
2021/10/30 12:54:28;;;;;;;3.40;1.70;;;15.40;99.90;;;;;;5053218;28;20188;-93
2021/10/30 12:56:59;;;;;;;3.50;1.80;;;15.40;99.90;;;;;;5041749;28;20173;-90
2021/10/30 12:59:38;;;;;;;3.90;1.63;;;15.40;99.90;;;;;;5057204;28;20162;-89
2021/10/30 13:02:07;;;;;;;4.80;1.70;;;15.30;99.90;;;;;;5050112;28;20185;-87
2021/10/30 13:04:45;;;;;;;2.33;1.50;;;15.40;99.90;;;;;;5055546;28;20189;-85
2021/10/30 13:07:11;;;;;;;3.17;1.70;;;15.50;99.90;;;;;;5054676;28;20170;-86
2021/10/30 13:09:40;;;;;;;3.87;2.10;;;15.30;99.90;;;;;;5054002;28;20189;-86
2021/10/30 13:12:12;;;;;;;2.70;1.70;;;15.20;99.90;;;;;;5049194;28;20190;-85
2021/10/30 13:15:01;;;;;;;2.30;1.40;;;15.20;99.90;;;;;;5041581;28;20182;-92
2021/10/30 13:17:26;;;;;;;2.07;1.70;;;15.20;99.90;;;;;;5051419;28;20197;-86
2021/10/30 13:20:11;;;;;;;2.80;1.60;;;15.30;99.90;;;;;;5056253;28;20248;-87
2021/10/30 13:22:39;;;;;;;3.10;1.63;;;15.20;99.90;;;;;;5040060;28;20412;-85
2021/10/30 13:25:12;;;;;;;2.07;1.60;;;15.20;99.90;;;;;;5052202;28;20173;-89
2021/10/30 13:27:52;;;;;;;2.67;1.60;;;15.20;99.90;;;;;;5046979;28;20196;-86
2021/10/30 13:30:17;;;;;;;2.20;1.60;;;15.20;99.90;;;;;;5047464;28;20201;-87
2021/10/30 13:32:43;;;;;;;2.90;1.60;;;15.20;99.90;;;;;;5045983;28;20701;-86
2021/10/30 13:35:11;;;;;;;2.30;1.40;;;15.20;99.90;;;;;;5042541;28;20208;-90
2021/10/30 13:37:39;;;;;;;3.23;1.70;;;15.20;99.90;;;;;;5023625;28;20182;-92
2021/10/30 13:40:05;;;;;;;2.60;1.90;;;15.20;99.90;;;;;;5051412;28;20191;-89
2021/10/30 13:42:32;;;;;;;3.37;2.00;;;15.20;99.90;;;;;;5054350;28;20196;-91
2021/10/30 13:44:58;;;;;;;2.07;1.27;;;15.30;99.90;;;;;;5050509;28;20183;-90
2021/10/30 13:47:28;;;;;;;2.27;1.27;;;15.10;99.90;;;;;;5042336;28;20183;-86
2021/10/30 13:49:55;;;;;;;1.73;1.20;;;15.10;99.90;;;;;;5040335;28;20178;-87
2021/10/30 13:52:40;;;;;;;2.17;1.30;;;15.00;99.90;;;;;;5040763;28;20648;-88
2021/10/30 13:55:07;;;;;;;2.33;1.40;;;15.00;99.90;;;;;;5037958;28;20181;-92
2021/10/30 13:57:33;;;;;;;1.87;1.40;;;15.00;99.90;;;;;;5024356;28;20185;-89
2021/10/30 14:00:04;;;;;;;1.47;1.00;;;15.00;99.90;;;;;;5049606;28;20238;-84
2021/10/30 14:03:00;;;;;;;2.13;1.30;;;15.00;99.90;;;;;;5049830;28;20153;-83
2021/10/30 14:05:41;;;;;;;1.70;1.13;;;15.00;99.90;;;;;;5054245;28;20259;-88
2021/10/30 14:08:09;;;;;;;2.50;1.40;;;14.90;99.90;;;;;;5055643;28;20200;-87
2021/10/30 14:10:37;;;;;;;1.50;1.23;;;14.90;99.90;;;;;;5057334;28;20208;-89
2021/10/30 14:13:05;;;;;;;2.33;1.40;;;15.00;99.90;;;;;;5055934;28;20253;-91
2021/10/30 14:15:34;;;;;;;2.27;1.27;;;15.00;99.90;;;;;;5046934;28;20178;-90
2021/10/30 14:18:03;;;;;;;2.63;1.30;;;14.90;99.90;;;;;;5042723;28;20209;-92
2021/10/30 14:20:29;;;;;;;3.30;1.30;;;14.90;99.90;;;;;;5041972;28;20205;-91
2021/10/30 14:22:55;;;;;;;2.13;1.30;;;14.90;99.90;;;;;;5038185;28;20205;-93
2021/10/30 14:25:22;;;;;;;2.00;1.20;;;14.90;99.90;;;;;;5037530;28;20190;-92
2021/10/30 14:27:49;;;;;;;2.17;1.20;;;14.90;99.90;;;;;;5040154;28;20240;-91
2021/10/30 14:30:26;;;;;;;1.90;1.10;;;15.00;99.90;;;;;;5036074;28;20529;-94
2021/10/30 14:32:53;;;;;;;2.57;1.27;;;14.90;99.90;;;;;;5047523;28;20184;-86
2021/10/30 14:35:19;;;;;;;2.67;1.10;;;14.90;99.90;;;;;;5053112;28;20176;-86
2021/10/30 14:37:48;;;;;;;3.10;1.10;;;14.90;99.90;;;;;;5046808;28;20209;-88
2021/10/30 14:40:14;;;;;;;1.57;1.00;;;14.90;99.90;;;;;;5044873;28;20181;-95
2021/10/30 14:46:06;;;;;;;2.03;1.40;;;14.90;99.90;;;;;;5038375;28;20167;-90
2021/10/30 14:48:33;;;;;;;1.50;0.80;;;14.80;99.90;;;;;;5037418;28;20186;-95
2021/10/30 14:50:59;;;;;;;2.17;0.90;;;14.80;99.90;;;;;;5038183;28;20214;-93
2021/10/30 14:53:25;;;;;;;1.83;0.80;;;14.80;99.90;;;;;;5038080;28;20276;-92
2021/10/30 14:56:38;;;;;;;1.00;0.80;;;14.80;99.90;;;;;;5041039;28;20192;-90
2021/10/30 14:59:05;;;;;;;1.03;0.90;;;14.80;99.90;;;;;;5044722;28;20275;-93
2021/10/30 15:01:31;;;;;;;4.80;2.40;;;14.80;99.90;;;;;;5037495;28;20563;-93
2021/10/30 15:03:57;;;;;;;2.47;1.27;;;14.70;99.90;;;;;;5053070;28;20252;-92
2021/10/30 15:06:23;;;;;;;1.87;1.00;;;14.80;99.90;;;;;;5051069;28;20210;-91
2021/10/30 15:08:52;;;;;;;2.00;1.00;;;14.80;99.90;;;;;;5038758;28;20185;-91
2021/10/30 15:11:21;;;;;;;1.67;0.90;;;14.70;99.90;;;;;;5055292;28;20185;-90
2021/10/30 15:13:53;;;;;;;1.60;1.07;;;14.70;99.90;;;;;;5047182;28;20187;-91
2021/10/30 15:16:23;;;;;;;2.10;1.27;;;14.70;99.90;;;;;;5055952;28;20240;-92
2021/10/30 15:18:50;;;;;;;2.87;1.57;;;14.70;99.90;;;;;;5055500;28;20185;-91
2021/10/30 15:21:17;;;;;;;2.00;1.30;;;14.70;99.90;;;;;;5059346;28;20185;-86
2021/10/30 15:24:24;;;;;;;1.93;1.20;;;14.70;99.90;;;;;;5060136;28;20230;-84
2021/10/30 15:26:56;;;;;;;1.93;1.20;;;14.70;99.90;;;;;;5061070;28;20174;-87
2021/10/30 15:29:25;;;;;;;3.63;1.40;;;14.80;99.90;;;;;;5055412;28;20265;-94
2021/10/30 15:31:51;;;;;;;3.50;1.70;;;14.90;99.90;;;;;;5050489;28;20198;-92
2021/10/30 15:34:20;;;;;;;3.87;1.53;;;14.70;99.90;;;;;;5048418;28;20257;-92
2021/10/30 15:36:46;;;;;;;3.40;1.70;;;14.50;99.90;;;;;;5047051;28;20206;-91
2021/10/30 15:39:15;;;;;;;3.93;2.23;;;14.40;99.90;;;;;;5057569;28;20206;-92
2021/10/30 15:41:42;;;;;;;4.47;2.13;;;14.30;99.90;;;;;;5056834;28;20172;-85
2021/10/30 15:44:09;;;;;;;2.30;1.90;;;14.20;99.90;;;;;;5057205;28;20225;-86
2021/10/30 15:46:36;;;;;;;2.93;2.00;;;14.20;99.90;;;;;;5055367;28;20251;-92
2021/10/30 15:49:37;;;;;;;3.27;1.73;;;14.00;99.90;;;;;;5038381;28;20237;-92
2021/10/30 15:52:04;;;;;;;5.07;2.03;;;13.90;99.90;;;;;;5041897;28;20166;-94
2021/10/30 15:54:39;;;;;;;3.37;1.93;;;13.90;99.90;;;;;;5040912;28;20180;-93
2021/10/30 15:57:07;;;;;;;3.63;1.97;;;13.80;99.90;;;;;;5043242;28;20181;-91
2021/10/30 15:59:35;;;;;;;4.60;2.13;;;13.90;99.90;;;;;;5048481;28;20243;-92
2021/10/30 16:02:01;;;;;;;7.17;3.73;;;13.90;99.90;;;;;;5038227;28;20194;-93
2021/10/30 16:04:26;;;;;;;5.10;2.50;;;13.90;99.90;;;;;;5049028;28;20247;-91
2021/10/30 16:06:56;;;;;;;3.37;2.13;;;14.00;99.90;;;;;;5049207;28;20636;-92
2021/10/30 16:09:27;;;;;;;4.43;2.40;;;14.10;99.90;;;;;;5009035;28;20195;-92
2021/10/30 16:11:58;;;;;;;7.53;3.17;;;14.10;99.90;;;;;;5029193;28;20202;-95
2021/10/30 16:14:33;;;;;;;5.27;2.90;;;14.00;99.90;;;;;;5042299;28;20184;-85
2021/10/30 16:17:00;;;;;;;6.00;3.10;;;14.10;99.90;;;;;;5054171;28;20219;-87
2021/10/30 16:19:25;;;;;;;4.53;2.90;;;14.00;99.90;;;;;;5053491;28;20194;-90
2021/10/30 16:22:00;;;;;;;5.50;2.90;;;13.90;99.90;;;;;;5051431;28;20261;-87
2021/10/30 16:24:38;;;;;;;4.07;2.80;;;13.90;99.90;;;;;;5045242;28;20235;-89
2021/10/30 16:27:06;;;;;;;4.83;3.20;;;13.90;99.90;;;;;;5045857;28;20190;-95
2021/10/30 16:29:35;;;;;;;5.17;2.87;;;13.90;99.90;;;;;;5043651;28;20243;-85
2021/10/30 16:32:01;;;;;;;4.73;2.97;;;13.90;99.90;;;;;;5036850;28;20201;-86
2021/10/30 16:34:26;;;;;;;5.80;3.33;;;13.80;99.90;;;;;;5056040;28;20203;-85
2021/10/30 16:36:52;;;;;;;5.87;3.33;;;13.90;99.90;;;;;;5046341;28;20223;-85
2021/10/30 16:39:19;;;;;;;4.77;3.07;;;13.90;99.90;;;;;;5042923;28;20188;-89
2021/10/30 16:41:46;;;;;;;4.60;3.20;;;13.90;99.90;;;;;;5042803;28;20188;-92
2021/10/30 16:44:14;;;;;;;5.47;3.20;;;14.00;99.90;;;;;;5052515;28;20224;-89
2021/10/30 16:46:43;;;;;;;6.43;3.50;;;14.10;99.90;;;;;;5037851;28;20215;-96
2021/10/30 16:49:11;;;;;;;6.50;4.07;;;14.20;99.90;;;;;;5049887;28;20244;-89
2021/10/30 16:51:59;;;;;;;6.03;3.90;;;14.10;99.90;;;;;;5037365;28;20170;-92
2021/10/30 16:55:12;;;;;;;7.43;4.37;;;14.00;99.90;;;;;;5053897;28;20181;-90
2021/10/30 16:57:37;;;;;;;5.87;4.37;;;14.10;99.90;;;;;;5054917;28;20184;-85
2021/10/30 17:00:07;;;;;;;6.53;4.40;;;14.10;99.90;;;;;;5038373;28;20222;-85
2021/10/30 17:02:34;;;;;;;5.37;4.40;;;14.10;99.90;;;;;;5057411;28;20192;-88
2021/10/30 17:05:07;;;;;;;7.27;4.17;;;14.00;99.90;;;;;;5056603;28;20237;-96
2021/10/30 17:07:36;;;;;;;5.67;4.30;;;14.00;99.90;;;;;;5051618;28;20197;-94
2021/10/30 17:10:06;;;;;;;5.40;3.90;;;14.00;99.90;;;;;;5032448;28;20196;-96
2021/10/30 17:12:40;;;;;;;6.47;4.23;;;13.90;99.90;;;;;;5053343;28;20199;-91
2021/10/30 17:15:09;;;;;;;5.10;4.17;;;13.80;99.90;;;;;;5057848;28;20177;-88
2021/10/30 17:17:59;;;;;;;8.27;4.47;;;13.90;99.90;;;;;;5056966;28;20204;-87
2021/10/30 17:20:31;;;;;;;7.77;5.00;;;13.90;99.90;;;;;;5047306;28;20187;-91
2021/10/30 17:23:02;;;;;;;6.57;4.53;;;14.00;99.90;;;;;;5052996;28;20220;-88
2021/10/30 17:25:29;;;;;;;6.30;3.50;;;14.00;99.90;;;;;;5055554;28;20224;-93
2021/10/30 17:27:56;;;;;;;5.37;3.13;;;14.00;99.90;;;;;;5057182;28;20167;-89
2021/10/30 17:31:01;;;;;;;6.97;3.77;;;13.90;99.90;;;;;;5055158;28;20249;-86
2021/10/30 17:33:47;;;;;;;5.67;3.40;;;13.90;99.90;;;;;;5051934;28;20231;-92
2021/10/30 17:36:42;;;;;;;8.13;3.83;;;14.00;99.90;;;;;;5050369;28;20195;-94
2021/10/30 17:39:08;;;;;;;6.13;4.23;;;14.00;99.90;;;;;;5043561;28;20363;-95
2021/10/30 17:41:34;;;;;;;6.50;3.90;;;14.00;99.90;;;;;;5046392;28;20194;-88
2021/10/30 17:44:02;;;;;;;5.27;3.67;;;14.00;99.90;;;;;;5052643;28;20283;-94
2021/10/30 17:46:40;;;;;;;6.37;3.70;;;14.00;99.90;;;;;;5048643;28;20173;-93
2021/10/30 17:49:14;;;;;;;6.53;4.17;;;14.10;99.90;;;;;;5046161;28;20190;-90
2021/10/30 17:51:43;;;;;;;6.40;3.87;;;14.00;99.90;;;;;;5048899;28;20171;-88
2021/10/30 17:54:10;;;;;;;6.57;3.80;;;13.90;99.90;;;;;;5053486;28;20189;-85
2021/10/30 17:57:01;;;;;;;5.33;3.63;;;13.80;99.90;;;;;;5050003;28;20174;-92
2021/10/30 17:59:30;;;;;;;6.60;3.30;;;13.80;99.90;;;;;;5049884;28;20170;-94
2021/10/30 18:01:59;;;;;;;4.67;2.93;;;13.70;99.90;;;;;;5055727;28;20166;-89
2021/10/30 18:04:39;;;;;;;3.73;2.63;;;13.70;99.90;;;;;;5046132;28;20216;-91
2021/10/30 18:07:05;;;;;;;4.20;2.90;;;13.60;99.90;;;;;;5039905;28;20180;-91
2021/10/30 18:09:31;;;;;;;5.43;3.20;;;13.80;99.90;;;;;;5045095;28;20175;-90
2021/10/30 18:11:59;;;;;;;3.53;3.00;;;13.70;99.90;;;;;;5046676;28;20198;-93
2021/10/30 18:14:26;;;;;;;4.47;3.07;;;13.80;99.90;;;;;;5042540;28;20273;-89
2021/10/30 18:16:55;;;;;;;4.60;2.70;;;13.70;99.90;;;;;;5040697;28;20189;-92
2021/10/30 18:19:22;;;;;;;4.37;2.83;;;13.70;99.90;;;;;;5041078;28;20186;-89
2021/10/30 18:21:51;;;;;;;5.07;2.50;;;13.60;99.90;;;;;;5053894;28;20170;-84
2021/10/30 18:24:19;;;;;;;4.53;2.63;;;13.60;99.90;;;;;;5055085;28;20205;-86
2021/10/30 18:26:48;;;;;;;3.63;2.33;;;13.60;99.90;;;;;;5055086;28;20197;-88
2021/10/30 18:29:32;;;;;;;6.13;3.10;;;13.50;99.90;;;;;;5053838;28;20183;-92
2021/10/30 18:31:59;;;;;;;4.93;2.63;;;13.60;99.90;;;;;;5029193;28;20277;-94
2021/10/30 18:34:25;;;;;;;5.37;2.90;;;13.50;99.90;;;;;;5044031;28;20208;-94
2021/10/30 18:36:51;;;;;;;5.40;3.10;;;13.60;99.90;;;;;;5042705;28;20188;-91
2021/10/30 18:39:17;;;;;;;5.47;3.43;;;13.70;99.90;;;;;;5036176;28;20174;-90
2021/10/30 18:41:56;;;;;;;4.67;3.33;;;13.60;99.90;;;;;;5054784;28;20226;-91
2021/10/30 18:45:13;;;;;;;4.70;3.60;;;13.60;99.90;;;;;;5049353;28;20244;-89
2021/10/30 18:47:44;;;;;;;5.63;3.43;;;13.60;99.90;;;;;;5050109;28;20197;-90
2021/10/30 18:50:25;;;;;;;6.33;3.57;;;13.60;99.90;;;;;;5059275;28;20228;-90
2021/10/30 18:52:54;;;;;;;4.67;3.53;;;13.70;99.90;;;;;;5060407;28;20237;-93
2021/10/30 18:55:26;;;;;;;5.87;3.57;;;13.70;99.90;;;;;;5055386;28;20191;-84
2021/10/30 18:58:02;;;;;;;5.33;4.07;;;13.60;99.90;;;;;;5052832;28;20169;-94
2021/10/30 19:00:39;;;;;;;5.13;4.07;;;13.60;99.90;;;;;;5053189;28;20545;-86
2021/10/30 19:03:16;;;;;;;6.23;4.00;;;13.40;99.90;;;;;;5056481;28;20203;-86
2021/10/30 19:05:45;;;;;;;5.47;3.80;;;13.40;99.90;;;;;;5059583;28;20193;-94
2021/10/30 19:08:12;;;;;;;7.57;4.00;;;13.30;99.90;;;;;;5056028;28;20205;-88
2021/10/30 19:10:38;;;;;;;5.87;4.07;;;13.30;99.90;;;;;;5043641;28;20227;-91
2021/10/30 19:13:06;;;;;;;6.40;4.30;;;13.30;99.90;;;;;;5042924;28;20182;-94
2021/10/30 19:15:53;;;;;;;6.30;4.63;;;13.30;99.90;;;;;;5044339;28;20178;-96
2021/10/30 19:18:19;;;;;;;6.97;4.70;;;13.20;99.90;;;;;;5050961;28;20206;-90
2021/10/30 19:20:46;;;;;;;7.63;5.00;;;13.20;99.90;;;;;;5056160;28;20259;-91
2021/10/30 19:23:12;;;;;;;7.20;5.33;;;13.20;99.90;;;;;;5048026;28;20320;-91
2021/10/30 19:25:41;;;;;;;5.73;4.93;;;13.20;99.90;;;;;;5057427;28;20164;-89
2021/10/30 19:28:14;;;;;;;11.77;6.13;;;13.40;99.90;;;;;;5054205;28;20161;-96
2021/10/30 19:30:45;;;;;;;6.87;5.80;;;13.10;99.90;;;;;;5041018;28;20163;-91
2021/10/30 19:33:16;;;;;;;8.37;5.47;;;13.10;99.90;;;;;;5055886;28;20201;-96
2021/10/30 19:35:48;;;;;;;9.63;5.43;;;13.10;99.90;;;;;;5041395;28;20172;-94
2021/10/30 19:38:16;;;;;;;7.93;5.97;;;13.10;99.90;;;;;;5053102;28;20202;-89
2021/10/30 19:41:07;;;;;;;7.83;4.70;;;13.10;99.90;;;;;;5059543;28;20192;-89
2021/10/30 19:43:46;;;;;;;6.17;4.90;;;13.20;99.90;;;;;;5060881;28;20217;-88
2021/10/30 19:46:15;;;;;;;9.17;5.50;;;13.20;99.90;;;;;;5041996;28;20277;-89
2021/10/30 19:48:48;;;;;;;6.93;5.17;;;13.20;99.90;;;;;;5049027;28;20174;-91
2021/10/30 19:51:37;;;;;;;7.63;5.47;;;13.20;99.90;;;;;;5046405;28;20190;-91
2021/10/30 19:54:08;;;;;;;6.97;5.40;;;13.20;99.90;;;;;;5045076;28;20202;-87
2021/10/30 19:56:37;;;;;;;8.63;5.37;;;13.30;99.90;;;;;;5026675;28;20194;-92
2021/10/30 19:59:10;;;;;;;7.03;5.17;;;13.20;99.90;;;;;;5047237;28;20179;-92
2021/10/30 20:01:42;;;;;;;6.43;4.73;;;13.10;99.90;;;;;;5039386;28;20264;-90
2021/10/30 20:04:15;;;;;;;6.83;5.33;;;13.10;99.90;;;;;;5039415;28;20215;-87
2021/10/30 20:06:47;;;;;;;6.97;5.60;;;13.00;99.90;;;;;;5056908;28;20163;-85
2021/10/30 20:09:14;;;;;;;8.60;5.90;;;13.10;99.90;;;;;;5051586;28;20176;-91
2021/10/30 20:11:46;;;;;;;7.90;4.93;;;13.10;99.90;;;;;;5048985;28;20657;-91
2021/10/30 20:14:15;;;;;;;9.10;5.53;;;13.00;99.90;;;;;;5029248;28;20185;-88
2021/10/30 20:17:03;;;;;;;7.70;5.60;;;13.00;99.90;;;;;;5050700;28;20191;-89
2021/10/30 20:19:36;;;;;;;11.07;5.67;;;13.10;99.90;;;;;;5037992;28;20175;-92
2021/10/30 20:22:07;;;;;;;8.70;5.50;;;13.10;99.90;;;;;;5057494;28;20176;-89
2021/10/30 20:24:32;;;;;;;9.00;5.97;;;13.10;99.90;;;;;;5039947;28;20206;-91
2021/10/30 20:27:06;;;;;;;8.43;5.93;;;13.00;99.90;;;;;;5055881;28;20187;-91
2021/10/30 20:33:15;;;;;;;8.37;5.83;;;13.00;99.90;;;;;;5059593;28;20225;-93
2021/10/30 20:43:02;;;;;;;8.60;5.30;;;12.80;99.90;;;;;;5056353;28;20193;-85
2021/10/30 20:45:29;;;;;;;7.20;4.80;;;13.10;99.90;;;;;;5053832;28;20221;-90
2021/10/30 20:47:56;;;;;;;8.37;5.60;;;12.90;99.90;;;;;;5050695;28;20262;-89
2021/10/30 20:50:22;;;;;;;7.40;5.73;;;13.00;99.90;;;;;;5054453;28;20270;-84
2021/10/30 20:52:49;;;;;;;6.90;5.33;;;12.90;99.90;;;;;;5057298;28;20213;-87
2021/10/30 20:55:26;;;;;;;9.80;5.50;;;13.10;99.90;;;;;;5050532;28;20182;-89
2021/10/30 20:57:59;;;;;;;7.77;5.00;;;13.00;99.90;;;;;;5045005;28;20179;-91
2021/10/30 21:00:25;;;;;;;8.43;6.13;;;13.00;99.90;;;;;;5058374;28;20231;-88
2021/10/30 21:03:08;;;;;;;7.33;6.03;;;13.00;99.90;;;;;;5033828;28;20193;-93
2021/10/30 21:05:37;;;;;;;9.97;6.23;;;13.10;99.90;;;;;;5055150;28;20198;-88